sensor_id;sensor_type;location;lat;lon;timestamp;P1;durP1;ratioP1;P2;durP2;ratioP2
77158;SDS011;66129;45.890;13.714;2023-10-08T00:00:27;6.28;;;3.65;;
77158;SDS011;66129;45.890;13.714;2023-10-08T00:03:12;6.00;;;3.88;;
77158;SDS011;66129;45.890;13.714;2023-10-08T00:05:38;5.97;;;4.05;;
77158;SDS011;66129;45.890;13.714;2023-10-08T00:08:05;6.65;;;3.67;;
77158;SDS011;66129;45.890;13.714;2023-10-08T00:10:38;9.70;;;3.92;;
77158;SDS011;66129;45.890;13.714;2023-10-08T00:13:08;8.80;;;3.58;;
77158;SDS011;66129;45.890;13.714;2023-10-08T00:15:35;7.40;;;3.90;;
77158;SDS011;66129;45.890;13.714;2023-10-08T00:18:02;7.78;;;3.47;;
77158;SDS011;66129;45.890;13.714;2023-10-08T00:20:30;6.55;;;3.38;;
77158;SDS011;66129;45.890;13.714;2023-10-08T00:23:03;6.65;;;3.85;;
77158;SDS011;66129;45.890;13.714;2023-10-08T00:25:33;6.75;;;3.80;;
77158;SDS011;66129;45.890;13.714;2023-10-08T00:27:59;7.07;;;4.22;;
77158;SDS011;66129;45.890;13.714;2023-10-08T00:30:27;6.80;;;3.25;;
77158;SDS011;66129;45.890;13.714;2023-10-08T00:32:52;7.32;;;3.30;;
77158;SDS011;66129;45.890;13.714;2023-10-08T00:35:18;7.65;;;4.13;;
77158;SDS011;66129;45.890;13.714;2023-10-08T00:37:46;8.85;;;4.10;;
77158;SDS011;66129;45.890;13.714;2023-10-08T00:40:13;7.65;;;3.85;;
77158;SDS011;66129;45.890;13.714;2023-10-08T00:42:44;8.70;;;4.40;;
77158;SDS011;66129;45.890;13.714;2023-10-08T00:45:11;7.28;;;3.95;;
77158;SDS011;66129;45.890;13.714;2023-10-08T00:47:40;7.25;;;4.10;;
77158;SDS011;66129;45.890;13.714;2023-10-08T00:50:11;7.97;;;3.60;;
77158;SDS011;66129;45.890;13.714;2023-10-08T00:52:46;11.70;;;4.18;;
77158;SDS011;66129;45.890;13.714;2023-10-08T00:55:25;8.27;;;4.32;;
77158;SDS011;66129;45.890;13.714;2023-10-08T00:57:56;6.97;;;3.35;;
77158;SDS011;66129;45.890;13.714;2023-10-08T01:00:24;9.38;;;4.40;;
77158;SDS011;66129;45.890;13.714;2023-10-08T01:02:57;8.18;;;4.75;;
77158;SDS011;66129;45.890;13.714;2023-10-08T01:05:27;7.95;;;4.32;;
77158;SDS011;66129;45.890;13.714;2023-10-08T01:08:11;10.75;;;4.60;;
77158;SDS011;66129;45.890;13.714;2023-10-08T01:10:42;7.13;;;4.07;;
77158;SDS011;66129;45.890;13.714;2023-10-08T01:13:09;7.82;;;3.78;;
77158;SDS011;66129;45.890;13.714;2023-10-08T01:15:55;7.72;;;3.53;;
77158;SDS011;66129;45.890;13.714;2023-10-08T01:18:22;8.07;;;4.75;;
77158;SDS011;66129;45.890;13.714;2023-10-08T01:20:56;7.10;;;4.32;;
77158;SDS011;66129;45.890;13.714;2023-10-08T01:23:29;11.15;;;4.65;;
77158;SDS011;66129;45.890;13.714;2023-10-08T01:25:57;6.35;;;3.58;;
77158;SDS011;66129;45.890;13.714;2023-10-08T01:28:48;7.57;;;3.97;;
77158;SDS011;66129;45.890;13.714;2023-10-08T01:31:14;7.03;;;4.15;;
77158;SDS011;66129;45.890;13.714;2023-10-08T01:33:40;7.35;;;3.95;;
77158;SDS011;66129;45.890;13.714;2023-10-08T01:36:14;10.55;;;4.35;;
77158;SDS011;66129;45.890;13.714;2023-10-08T01:38:40;6.97;;;3.72;;
77158;SDS011;66129;45.890;13.714;2023-10-08T01:41:07;6.15;;;3.70;;
77158;SDS011;66129;45.890;13.714;2023-10-08T01:43:44;7.43;;;3.63;;
77158;SDS011;66129;45.890;13.714;2023-10-08T01:46:14;7.75;;;3.78;;
77158;SDS011;66129;45.890;13.714;2023-10-08T01:48:41;8.20;;;3.92;;
77158;SDS011;66129;45.890;13.714;2023-10-08T01:51:09;7.57;;;3.90;;
77158;SDS011;66129;45.890;13.714;2023-10-08T01:53:39;6.28;;;3.28;;
77158;SDS011;66129;45.890;13.714;2023-10-08T01:56:06;8.00;;;4.60;;
77158;SDS011;66129;45.890;13.714;2023-10-08T01:58:32;6.85;;;3.67;;
77158;SDS011;66129;45.890;13.714;2023-10-08T02:01:00;7.20;;;3.42;;
77158;SDS011;66129;45.890;13.714;2023-10-08T02:03:26;7.82;;;4.28;;
77158;SDS011;66129;45.890;13.714;2023-10-08T02:05:54;8.10;;;4.30;;
77158;SDS011;66129;45.890;13.714;2023-10-08T02:08:24;6.22;;;3.80;;
77158;SDS011;66129;45.890;13.714;2023-10-08T02:10:51;9.73;;;4.95;;
77158;SDS011;66129;45.890;13.714;2023-10-08T02:13:18;11.68;;;3.75;;
77158;SDS011;66129;45.890;13.714;2023-10-08T02:15:44;10.27;;;4.32;;
77158;SDS011;66129;45.890;13.714;2023-10-08T02:18:11;8.90;;;4.28;;
77158;SDS011;66129;45.890;13.714;2023-10-08T02:20:38;9.93;;;4.78;;
77158;SDS011;66129;45.890;13.714;2023-10-08T02:23:04;7.55;;;4.53;;
77158;SDS011;66129;45.890;13.714;2023-10-08T02:25:31;9.80;;;4.63;;
77158;SDS011;66129;45.890;13.714;2023-10-08T02:27:56;9.32;;;4.32;;
77158;SDS011;66129;45.890;13.714;2023-10-08T02:30:22;8.68;;;4.15;;
77158;SDS011;66129;45.890;13.714;2023-10-08T02:32:48;7.00;;;3.97;;
77158;SDS011;66129;45.890;13.714;2023-10-08T02:35:14;6.38;;;4.20;;
77158;SDS011;66129;45.890;13.714;2023-10-08T02:37:40;7.57;;;4.18;;
77158;SDS011;66129;45.890;13.714;2023-10-08T02:40:09;7.15;;;4.25;;
77158;SDS011;66129;45.890;13.714;2023-10-08T02:42:57;8.20;;;4.47;;
77158;SDS011;66129;45.890;13.714;2023-10-08T02:45:24;12.43;;;4.60;;
77158;SDS011;66129;45.890;13.714;2023-10-08T02:47:50;9.70;;;4.78;;
77158;SDS011;66129;45.890;13.714;2023-10-08T02:50:19;7.20;;;3.78;;
77158;SDS011;66129;45.890;13.714;2023-10-08T02:52:45;8.20;;;4.60;;
77158;SDS011;66129;45.890;13.714;2023-10-08T02:55:11;10.02;;;4.60;;
77158;SDS011;66129;45.890;13.714;2023-10-08T02:57:52;8.13;;;4.78;;
77158;SDS011;66129;45.890;13.714;2023-10-08T03:00:18;7.95;;;3.83;;
77158;SDS011;66129;45.890;13.714;2023-10-08T03:02:45;7.60;;;4.35;;
77158;SDS011;66129;45.890;13.714;2023-10-08T03:05:11;6.93;;;3.75;;
77158;SDS011;66129;45.890;13.714;2023-10-08T03:07:38;8.38;;;4.35;;
77158;SDS011;66129;45.890;13.714;2023-10-08T03:10:05;7.65;;;4.38;;
77158;SDS011;66129;45.890;13.714;2023-10-08T03:12:44;7.45;;;4.20;;
77158;SDS011;66129;45.890;13.714;2023-10-08T03:15:11;7.97;;;4.10;;
77158;SDS011;66129;45.890;13.714;2023-10-08T03:17:38;5.75;;;3.15;;
77158;SDS011;66129;45.890;13.714;2023-10-08T03:20:13;8.63;;;4.20;;
77158;SDS011;66129;45.890;13.714;2023-10-08T03:22:55;8.48;;;4.40;;
77158;SDS011;66129;45.890;13.714;2023-10-08T03:25:22;10.75;;;4.85;;
77158;SDS011;66129;45.890;13.714;2023-10-08T03:27:49;6.80;;;4.65;;
77158;SDS011;66129;45.890;13.714;2023-10-08T03:30:15;7.63;;;4.20;;
77158;SDS011;66129;45.890;13.714;2023-10-08T03:32:43;12.05;;;4.18;;
77158;SDS011;66129;45.890;13.714;2023-10-08T03:35:21;10.98;;;4.50;;
77158;SDS011;66129;45.890;13.714;2023-10-08T03:37:53;7.35;;;4.15;;
77158;SDS011;66129;45.890;13.714;2023-10-08T03:40:19;6.82;;;4.55;;
77158;SDS011;66129;45.890;13.714;2023-10-08T03:43:07;8.60;;;4.72;;
77158;SDS011;66129;45.890;13.714;2023-10-08T03:45:40;6.00;;;3.75;;
77158;SDS011;66129;45.890;13.714;2023-10-08T03:48:24;6.53;;;3.88;;
77158;SDS011;66129;45.890;13.714;2023-10-08T03:50:50;10.77;;;5.10;;
77158;SDS011;66129;45.890;13.714;2023-10-08T03:53:31;7.65;;;4.65;;
77158;SDS011;66129;45.890;13.714;2023-10-08T03:56:02;6.78;;;4.07;;
77158;SDS011;66129;45.890;13.714;2023-10-08T03:58:30;9.32;;;4.35;;
77158;SDS011;66129;45.890;13.714;2023-10-08T04:01:03;10.57;;;4.47;;
77158;SDS011;66129;45.890;13.714;2023-10-08T04:03:34;7.80;;;4.47;;
77158;SDS011;66129;45.890;13.714;2023-10-08T04:06:29;10.55;;;4.47;;
77158;SDS011;66129;45.890;13.714;2023-10-08T04:09:04;7.22;;;4.18;;
77158;SDS011;66129;45.890;13.714;2023-10-08T04:11:33;9.85;;;4.30;;
77158;SDS011;66129;45.890;13.714;2023-10-08T04:14:21;7.90;;;4.88;;
77158;SDS011;66129;45.890;13.714;2023-10-08T04:16:48;8.23;;;5.07;;
77158;SDS011;66129;45.890;13.714;2023-10-08T04:19:21;7.68;;;4.63;;
77158;SDS011;66129;45.890;13.714;2023-10-08T04:21:54;8.55;;;4.13;;
77158;SDS011;66129;45.890;13.714;2023-10-08T04:24:24;8.40;;;4.32;;
77158;SDS011;66129;45.890;13.714;2023-10-08T04:26:59;10.32;;;5.28;;
77158;SDS011;66129;45.890;13.714;2023-10-08T04:31:58;7.53;;;4.15;;
77158;SDS011;66129;45.890;13.714;2023-10-08T04:34:32;7.95;;;4.20;;
77158;SDS011;66129;45.890;13.714;2023-10-08T04:37:01;6.90;;;3.78;;
77158;SDS011;66129;45.890;13.714;2023-10-08T04:39:29;7.85;;;3.78;;
77158;SDS011;66129;45.890;13.714;2023-10-08T04:41:58;7.30;;;4.30;;
77158;SDS011;66129;45.890;13.714;2023-10-08T04:44:30;8.48;;;4.45;;
77158;SDS011;66129;45.890;13.714;2023-10-08T04:46:57;8.40;;;3.95;;
77158;SDS011;66129;45.890;13.714;2023-10-08T04:49:29;7.60;;;4.72;;
77158;SDS011;66129;45.890;13.714;2023-10-08T04:51:59;8.27;;;5.28;;
77158;SDS011;66129;45.890;13.714;2023-10-08T04:54:40;8.32;;;4.68;;
77158;SDS011;66129;45.890;13.714;2023-10-08T04:57:16;10.48;;;5.05;;
77158;SDS011;66129;45.890;13.714;2023-10-08T04:59:42;10.02;;;5.03;;
77158;SDS011;66129;45.890;13.714;2023-10-08T05:02:08;11.07;;;4.80;;
77158;SDS011;66129;45.890;13.714;2023-10-08T05:04:43;9.63;;;5.40;;
77158;SDS011;66129;45.890;13.714;2023-10-08T05:07:12;10.00;;;5.80;;
77158;SDS011;66129;45.890;13.714;2023-10-08T05:10:04;8.85;;;4.78;;
77158;SDS011;66129;45.890;13.714;2023-10-08T05:12:33;8.05;;;4.45;;
77158;SDS011;66129;45.890;13.714;2023-10-08T05:15:16;10.65;;;4.78;;
77158;SDS011;66129;45.890;13.714;2023-10-08T05:17:45;6.95;;;4.35;;
77158;SDS011;66129;45.890;13.714;2023-10-08T05:20:14;9.68;;;5.53;;
77158;SDS011;66129;45.890;13.714;2023-10-08T05:23:10;9.10;;;5.00;;
77158;SDS011;66129;45.890;13.714;2023-10-08T05:28:39;8.13;;;4.00;;
77158;SDS011;66129;45.890;13.714;2023-10-08T05:31:24;8.48;;;4.18;;
77158;SDS011;66129;45.890;13.714;2023-10-08T05:34:22;10.52;;;5.88;;
77158;SDS011;66129;45.890;13.714;2023-10-08T05:37:07;10.70;;;5.85;;
77158;SDS011;66129;45.890;13.714;2023-10-08T05:39:33;7.45;;;4.88;;
77158;SDS011;66129;45.890;13.714;2023-10-08T05:42:04;9.02;;;4.93;;
77158;SDS011;66129;45.890;13.714;2023-10-08T05:44:45;7.88;;;4.60;;
77158;SDS011;66129;45.890;13.714;2023-10-08T05:47:30;7.35;;;4.53;;
77158;SDS011;66129;45.890;13.714;2023-10-08T05:49:59;8.63;;;5.47;;
77158;SDS011;66129;45.890;13.714;2023-10-08T05:52:43;10.88;;;4.78;;
77158;SDS011;66129;45.890;13.714;2023-10-08T05:55:18;9.85;;;5.43;;
77158;SDS011;66129;45.890;13.714;2023-10-08T05:57:53;8.38;;;4.72;;
77158;SDS011;66129;45.890;13.714;2023-10-08T06:00:41;12.48;;;5.10;;
77158;SDS011;66129;45.890;13.714;2023-10-08T06:03:15;11.15;;;4.85;;
77158;SDS011;66129;45.890;13.714;2023-10-08T06:06:05;6.93;;;4.47;;
77158;SDS011;66129;45.890;13.714;2023-10-08T06:08:38;9.98;;;4.97;;
77158;SDS011;66129;45.890;13.714;2023-10-08T06:11:22;8.43;;;4.97;;
77158;SDS011;66129;45.890;13.714;2023-10-08T06:14:06;8.10;;;5.03;;
77158;SDS011;66129;45.890;13.714;2023-10-08T06:16:52;8.68;;;5.53;;
77158;SDS011;66129;45.890;13.714;2023-10-08T06:19:38;8.82;;;4.72;;
77158;SDS011;66129;45.890;13.714;2023-10-08T06:22:04;8.23;;;4.93;;
77158;SDS011;66129;45.890;13.714;2023-10-08T06:24:29;8.23;;;4.65;;
77158;SDS011;66129;45.890;13.714;2023-10-08T06:26:58;9.70;;;5.15;;
77158;SDS011;66129;45.890;13.714;2023-10-08T06:29:29;9.50;;;4.95;;
77158;SDS011;66129;45.890;13.714;2023-10-08T06:31:56;8.95;;;5.00;;
77158;SDS011;66129;45.890;13.714;2023-10-08T06:34:27;9.93;;;4.57;;
77158;SDS011;66129;45.890;13.714;2023-10-08T06:36:54;12.52;;;5.10;;
77158;SDS011;66129;45.890;13.714;2023-10-08T06:39:22;8.82;;;4.95;;
77158;SDS011;66129;45.890;13.714;2023-10-08T06:41:58;8.70;;;4.55;;
77158;SDS011;66129;45.890;13.714;2023-10-08T06:44:24;10.73;;;5.65;;
77158;SDS011;66129;45.890;13.714;2023-10-08T06:46:51;10.77;;;4.38;;
77158;SDS011;66129;45.890;13.714;2023-10-08T06:49:19;7.43;;;4.95;;
77158;SDS011;66129;45.890;13.714;2023-10-08T06:51:45;8.90;;;4.40;;
77158;SDS011;66129;45.890;13.714;2023-10-08T06:54:11;8.70;;;4.25;;
77158;SDS011;66129;45.890;13.714;2023-10-08T06:56:39;7.68;;;3.97;;
77158;SDS011;66129;45.890;13.714;2023-10-08T06:59:11;7.63;;;4.40;;
77158;SDS011;66129;45.890;13.714;2023-10-08T07:01:36;6.82;;;4.22;;
77158;SDS011;66129;45.890;13.714;2023-10-08T07:04:05;8.55;;;4.65;;
77158;SDS011;66129;45.890;13.714;2023-10-08T07:06:34;8.95;;;5.10;;
77158;SDS011;66129;45.890;13.714;2023-10-08T07:09:02;10.63;;;4.80;;
77158;SDS011;66129;45.890;13.714;2023-10-08T07:11:32;11.48;;;4.32;;
77158;SDS011;66129;45.890;13.714;2023-10-08T07:14:04;6.72;;;3.83;;
77158;SDS011;66129;45.890;13.714;2023-10-08T07:16:33;7.20;;;4.38;;
77158;SDS011;66129;45.890;13.714;2023-10-08T07:18:59;8.23;;;4.35;;
77158;SDS011;66129;45.890;13.714;2023-10-08T07:21:28;8.85;;;4.68;;
77158;SDS011;66129;45.890;13.714;2023-10-08T07:24:03;7.05;;;3.85;;
77158;SDS011;66129;45.890;13.714;2023-10-08T07:29:02;8.50;;;4.63;;
77158;SDS011;66129;45.890;13.714;2023-10-08T07:31:34;7.45;;;4.18;;
77158;SDS011;66129;45.890;13.714;2023-10-08T07:34:02;8.35;;;3.90;;
77158;SDS011;66129;45.890;13.714;2023-10-08T07:36:42;7.88;;;4.38;;
77158;SDS011;66129;45.890;13.714;2023-10-08T07:39:09;6.80;;;4.32;;
77158;SDS011;66129;45.890;13.714;2023-10-08T07:41:48;6.95;;;3.97;;
77158;SDS011;66129;45.890;13.714;2023-10-08T07:44:14;9.95;;;4.13;;
77158;SDS011;66129;45.890;13.714;2023-10-08T07:46:40;9.93;;;3.72;;
77158;SDS011;66129;45.890;13.714;2023-10-08T07:49:05;4.93;;;3.47;;
77158;SDS011;66129;45.890;13.714;2023-10-08T07:51:31;8.20;;;4.30;;
77158;SDS011;66129;45.890;13.714;2023-10-08T07:53:57;7.38;;;4.88;;
77158;SDS011;66129;45.890;13.714;2023-10-08T07:56:23;8.25;;;5.22;;
77158;SDS011;66129;45.890;13.714;2023-10-08T07:58:49;11.88;;;5.97;;
77158;SDS011;66129;45.890;13.714;2023-10-08T08:01:15;9.38;;;4.78;;
77158;SDS011;66129;45.890;13.714;2023-10-08T08:03:40;8.13;;;5.13;;
77158;SDS011;66129;45.890;13.714;2023-10-08T08:06:07;11.02;;;5.28;;
77158;SDS011;66129;45.890;13.714;2023-10-08T08:08:37;6.75;;;4.20;;
77158;SDS011;66129;45.890;13.714;2023-10-08T08:11:04;10.85;;;4.55;;
77158;SDS011;66129;45.890;13.714;2023-10-08T08:13:37;9.40;;;4.35;;
77158;SDS011;66129;45.890;13.714;2023-10-08T08:16:11;6.28;;;3.50;;
77158;SDS011;66129;45.890;13.714;2023-10-08T08:21:12;7.03;;;4.10;;
77158;SDS011;66129;45.890;13.714;2023-10-08T08:23:44;6.18;;;3.70;;
77158;SDS011;66129;45.890;13.714;2023-10-08T08:28:55;6.68;;;3.63;;
77158;SDS011;66129;45.890;13.714;2023-10-08T08:31:22;7.00;;;3.72;;
77158;SDS011;66129;45.890;13.714;2023-10-08T08:33:52;8.32;;;3.97;;
77158;SDS011;66129;45.890;13.714;2023-10-08T08:36:22;8.57;;;5.65;;
77158;SDS011;66129;45.890;13.714;2023-10-08T08:38:51;6.82;;;4.15;;
77158;SDS011;66129;45.890;13.714;2023-10-08T08:41:17;8.65;;;4.07;;
77158;SDS011;66129;45.890;13.714;2023-10-08T08:43:52;15.00;;;4.35;;
77158;SDS011;66129;45.890;13.714;2023-10-08T08:46:27;6.95;;;3.92;;
77158;SDS011;66129;45.890;13.714;2023-10-08T08:48:55;6.22;;;4.03;;
77158;SDS011;66129;45.890;13.714;2023-10-08T08:51:25;7.30;;;4.25;;
77158;SDS011;66129;45.890;13.714;2023-10-08T08:53:52;6.30;;;4.05;;
77158;SDS011;66129;45.890;13.714;2023-10-08T08:56:17;7.10;;;4.38;;
77158;SDS011;66129;45.890;13.714;2023-10-08T08:58:43;9.32;;;4.82;;
77158;SDS011;66129;45.890;13.714;2023-10-08T09:01:11;8.02;;;4.72;;
77158;SDS011;66129;45.890;13.714;2023-10-08T09:03:39;8.30;;;4.53;;
77158;SDS011;66129;45.890;13.714;2023-10-08T09:06:04;7.32;;;4.18;;
77158;SDS011;66129;45.890;13.714;2023-10-08T09:08:34;8.75;;;4.43;;
77158;SDS011;66129;45.890;13.714;2023-10-08T09:11:00;9.18;;;4.63;;
77158;SDS011;66129;45.890;13.714;2023-10-08T09:13:29;8.88;;;4.15;;
77158;SDS011;66129;45.890;13.714;2023-10-08T09:16:14;11.48;;;4.70;;
77158;SDS011;66129;45.890;13.714;2023-10-08T09:18:44;12.32;;;5.03;;
77158;SDS011;66129;45.890;13.714;2023-10-08T09:21:13;12.88;;;4.53;;
77158;SDS011;66129;45.890;13.714;2023-10-08T09:23:51;7.57;;;3.67;;
77158;SDS011;66129;45.890;13.714;2023-10-08T09:26:22;16.42;;;5.10;;
77158;SDS011;66129;45.890;13.714;2023-10-08T09:28:49;9.60;;;4.93;;
77158;SDS011;66129;45.890;13.714;2023-10-08T09:31:16;7.45;;;4.43;;
77158;SDS011;66129;45.890;13.714;2023-10-08T09:33:42;7.85;;;4.43;;
77158;SDS011;66129;45.890;13.714;2023-10-08T09:36:18;8.20;;;5.15;;
77158;SDS011;66129;45.890;13.714;2023-10-08T09:38:45;8.63;;;4.20;;
77158;SDS011;66129;45.890;13.714;2023-10-08T09:41:13;9.38;;;4.50;;
77158;SDS011;66129;45.890;13.714;2023-10-08T09:43:40;10.50;;;4.38;;
77158;SDS011;66129;45.890;13.714;2023-10-08T09:46:15;7.97;;;4.65;;
77158;SDS011;66129;45.890;13.714;2023-10-08T09:48:49;9.38;;;4.25;;
77158;SDS011;66129;45.890;13.714;2023-10-08T09:51:18;8.05;;;4.57;;
77158;SDS011;66129;45.890;13.714;2023-10-08T09:54:01;7.53;;;3.85;;
77158;SDS011;66129;45.890;13.714;2023-10-08T09:56:29;11.90;;;4.28;;
77158;SDS011;66129;45.890;13.714;2023-10-08T09:58:56;8.77;;;4.90;;
77158;SDS011;66129;45.890;13.714;2023-10-08T10:01:24;8.80;;;4.50;;
77158;SDS011;66129;45.890;13.714;2023-10-08T10:03:51;8.55;;;4.20;;
77158;SDS011;66129;45.890;13.714;2023-10-08T10:06:17;10.40;;;4.90;;
77158;SDS011;66129;45.890;13.714;2023-10-08T10:08:44;8.10;;;4.45;;
77158;SDS011;66129;45.890;13.714;2023-10-08T10:11:11;13.02;;;5.32;;
77158;SDS011;66129;45.890;13.714;2023-10-08T10:13:41;8.05;;;4.80;;
77158;SDS011;66129;45.890;13.714;2023-10-08T10:16:12;9.10;;;5.47;;
77158;SDS011;66129;45.890;13.714;2023-10-08T10:18:43;9.70;;;5.32;;
77158;SDS011;66129;45.890;13.714;2023-10-08T10:23:44;9.77;;;6.03;;
77158;SDS011;66129;45.890;13.714;2023-10-08T10:31:34;13.07;;;6.63;;
77158;SDS011;66129;45.890;13.714;2023-10-08T10:34:07;10.98;;;7.07;;
77158;SDS011;66129;45.890;13.714;2023-10-08T10:36:36;8.80;;;5.00;;
77158;SDS011;66129;45.890;13.714;2023-10-08T10:39:04;10.00;;;6.03;;
77158;SDS011;66129;45.890;13.714;2023-10-08T10:41:51;13.45;;;6.32;;
77158;SDS011;66129;45.890;13.714;2023-10-08T10:44:30;12.95;;;6.55;;
77158;SDS011;66129;45.890;13.714;2023-10-08T10:46:57;16.05;;;8.68;;
77158;SDS011;66129;45.890;13.714;2023-10-08T10:49:42;14.25;;;8.93;;
77158;SDS011;66129;45.890;13.714;2023-10-08T10:52:17;14.88;;;9.15;;
77158;SDS011;66129;45.890;13.714;2023-10-08T10:55:08;13.88;;;8.07;;
77158;SDS011;66129;45.890;13.714;2023-10-08T10:57:40;12.50;;;7.82;;
77158;SDS011;66129;45.890;13.714;2023-10-08T11:00:07;13.50;;;8.00;;
77158;SDS011;66129;45.890;13.714;2023-10-08T11:02:52;11.68;;;8.35;;
77158;SDS011;66129;45.890;13.714;2023-10-08T11:05:24;15.95;;;6.88;;
77158;SDS011;66129;45.890;13.714;2023-10-08T11:07:56;8.93;;;5.85;;
77158;SDS011;66129;45.890;13.714;2023-10-08T11:10:33;13.40;;;7.70;;
77158;SDS011;66129;45.890;13.714;2023-10-08T11:13:03;9.98;;;6.82;;
77158;SDS011;66129;45.890;13.714;2023-10-08T11:15:39;13.95;;;6.88;;
77158;SDS011;66129;45.890;13.714;2023-10-08T11:18:12;11.85;;;6.88;;
77158;SDS011;66129;45.890;13.714;2023-10-08T11:20:48;14.23;;;7.32;;
77158;SDS011;66129;45.890;13.714;2023-10-08T11:23:34;13.98;;;9.07;;
77158;SDS011;66129;45.890;13.714;2023-10-08T11:26:02;13.63;;;8.50;;
77158;SDS011;66129;45.890;13.714;2023-10-08T11:28:30;11.50;;;7.47;;
77158;SDS011;66129;45.890;13.714;2023-10-08T11:30:59;12.40;;;8.15;;
77158;SDS011;66129;45.890;13.714;2023-10-08T11:33:36;13.48;;;8.23;;
77158;SDS011;66129;45.890;13.714;2023-10-08T11:36:05;12.20;;;7.80;;
77158;SDS011;66129;45.890;13.714;2023-10-08T11:38:38;9.68;;;6.70;;
77158;SDS011;66129;45.890;13.714;2023-10-08T11:41:11;9.65;;;6.82;;
77158;SDS011;66129;45.890;13.714;2023-10-08T11:43:50;11.57;;;7.90;;
77158;SDS011;66129;45.890;13.714;2023-10-08T11:46:31;11.93;;;7.38;;
77158;SDS011;66129;45.890;13.714;2023-10-08T11:49:06;13.80;;;7.28;;
77158;SDS011;66129;45.890;13.714;2023-10-08T11:51:42;11.95;;;6.85;;
77158;SDS011;66129;45.890;13.714;2023-10-08T11:54:09;15.32;;;7.53;;
77158;SDS011;66129;45.890;13.714;2023-10-08T11:56:37;13.85;;;7.43;;
77158;SDS011;66129;45.890;13.714;2023-10-08T11:59:03;12.10;;;7.10;;
77158;SDS011;66129;45.890;13.714;2023-10-08T12:01:34;17.25;;;7.00;;
77158;SDS011;66129;45.890;13.714;2023-10-08T12:04:03;12.15;;;7.03;;
77158;SDS011;66129;45.890;13.714;2023-10-08T12:06:30;16.27;;;7.05;;
77158;SDS011;66129;45.890;13.714;2023-10-08T12:08:56;11.18;;;6.60;;
77158;SDS011;66129;45.890;13.714;2023-10-08T12:11:26;14.18;;;6.82;;
77158;SDS011;66129;45.890;13.714;2023-10-08T12:14:00;17.70;;;7.45;;
77158;SDS011;66129;45.890;13.714;2023-10-08T12:16:26;12.60;;;6.68;;
77158;SDS011;66129;45.890;13.714;2023-10-08T12:18:55;10.77;;;6.35;;
77158;SDS011;66129;45.890;13.714;2023-10-08T12:21:24;13.60;;;7.05;;
77158;SDS011;66129;45.890;13.714;2023-10-08T12:23:50;11.15;;;6.82;;
77158;SDS011;66129;45.890;13.714;2023-10-08T12:26:17;11.93;;;6.40;;
77158;SDS011;66129;45.890;13.714;2023-10-08T12:28:46;11.88;;;6.60;;
77158;SDS011;66129;45.890;13.714;2023-10-08T12:31:17;12.70;;;6.97;;
77158;SDS011;66129;45.890;13.714;2023-10-08T12:33:47;10.20;;;6.70;;
77158;SDS011;66129;45.890;13.714;2023-10-08T12:36:14;11.50;;;6.93;;
77158;SDS011;66129;45.890;13.714;2023-10-08T12:38:42;11.20;;;6.95;;
77158;SDS011;66129;45.890;13.714;2023-10-08T12:41:11;11.75;;;7.57;;
77158;SDS011;66129;45.890;13.714;2023-10-08T12:43:38;12.57;;;6.10;;
77158;SDS011;66129;45.890;13.714;2023-10-08T12:46:08;11.68;;;7.43;;
77158;SDS011;66129;45.890;13.714;2023-10-08T12:48:43;9.38;;;6.28;;
77158;SDS011;66129;45.890;13.714;2023-10-08T12:51:17;13.27;;;7.35;;
77158;SDS011;66129;45.890;13.714;2023-10-08T12:53:43;11.88;;;7.13;;
77158;SDS011;66129;45.890;13.714;2023-10-08T12:56:35;10.40;;;6.43;;
77158;SDS011;66129;45.890;13.714;2023-10-08T12:59:03;14.95;;;7.05;;
77158;SDS011;66129;45.890;13.714;2023-10-08T13:01:32;11.73;;;7.20;;
77158;SDS011;66129;45.890;13.714;2023-10-08T13:04:00;13.48;;;6.80;;
77158;SDS011;66129;45.890;13.714;2023-10-08T13:06:32;12.10;;;6.70;;
77158;SDS011;66129;45.890;13.714;2023-10-08T13:08:58;13.73;;;7.30;;
77158;SDS011;66129;45.890;13.714;2023-10-08T13:11:25;13.77;;;7.10;;
77158;SDS011;66129;45.890;13.714;2023-10-08T13:13:54;12.30;;;7.00;;
77158;SDS011;66129;45.890;13.714;2023-10-08T13:16:24;11.35;;;7.15;;
77158;SDS011;66129;45.890;13.714;2023-10-08T13:18:55;11.40;;;7.05;;
77158;SDS011;66129;45.890;13.714;2023-10-08T13:21:23;12.35;;;7.32;;
77158;SDS011;66129;45.890;13.714;2023-10-08T13:23:56;12.75;;;7.45;;
77158;SDS011;66129;45.890;13.714;2023-10-08T13:26:27;13.32;;;7.07;;
77158;SDS011;66129;45.890;13.714;2023-10-08T13:28:56;12.38;;;7.15;;
77158;SDS011;66129;45.890;13.714;2023-10-08T13:31:23;12.00;;;6.72;;
77158;SDS011;66129;45.890;13.714;2023-10-08T13:33:50;12.73;;;7.22;;
77158;SDS011;66129;45.890;13.714;2023-10-08T13:36:17;13.40;;;7.30;;
77158;SDS011;66129;45.890;13.714;2023-10-08T13:38:43;9.45;;;6.57;;
77158;SDS011;66129;45.890;13.714;2023-10-08T13:41:11;13.55;;;7.10;;
77158;SDS011;66129;45.890;13.714;2023-10-08T13:43:42;11.65;;;6.57;;
77158;SDS011;66129;45.890;13.714;2023-10-08T13:46:15;11.45;;;6.78;;
77158;SDS011;66129;45.890;13.714;2023-10-08T13:53:40;10.23;;;6.75;;
77158;SDS011;66129;45.890;13.714;2023-10-08T13:56:10;10.70;;;6.50;;
77158;SDS011;66129;45.890;13.714;2023-10-08T13:58:36;11.00;;;6.68;;
77158;SDS011;66129;45.890;13.714;2023-10-08T14:01:06;13.75;;;7.22;;
77158;SDS011;66129;45.890;13.714;2023-10-08T14:03:53;12.60;;;6.85;;
77158;SDS011;66129;45.890;13.714;2023-10-08T14:06:21;10.48;;;6.68;;
77158;SDS011;66129;45.890;13.714;2023-10-08T14:08:47;10.50;;;6.22;;
77158;SDS011;66129;45.890;13.714;2023-10-08T14:11:22;11.32;;;7.20;;
77158;SDS011;66129;45.890;13.714;2023-10-08T14:13:55;11.30;;;7.10;;
77158;SDS011;66129;45.890;13.714;2023-10-08T14:16:21;11.85;;;6.90;;
77158;SDS011;66129;45.890;13.714;2023-10-08T14:18:53;12.18;;;6.85;;
77158;SDS011;66129;45.890;13.714;2023-10-08T14:21:21;11.45;;;6.72;;
77158;SDS011;66129;45.890;13.714;2023-10-08T14:23:55;12.43;;;7.20;;
77158;SDS011;66129;45.890;13.714;2023-10-08T14:26:27;10.82;;;6.78;;
77158;SDS011;66129;45.890;13.714;2023-10-08T14:29:00;10.18;;;6.28;;
77158;SDS011;66129;45.890;13.714;2023-10-08T14:31:32;9.68;;;7.15;;
77158;SDS011;66129;45.890;13.714;2023-10-08T14:34:03;10.52;;;7.07;;
77158;SDS011;66129;45.890;13.714;2023-10-08T14:36:48;11.10;;;6.85;;
77158;SDS011;66129;45.890;13.714;2023-10-08T14:39:34;15.85;;;7.43;;
77158;SDS011;66129;45.890;13.714;2023-10-08T14:42:18;9.07;;;6.93;;
77158;SDS011;66129;45.890;13.714;2023-10-08T14:45:03;13.05;;;7.47;;
77158;SDS011;66129;45.890;13.714;2023-10-08T14:47:36;14.32;;;7.85;;
77158;SDS011;66129;45.890;13.714;2023-10-08T14:50:04;12.07;;;7.20;;
77158;SDS011;66129;45.890;13.714;2023-10-08T14:52:31;12.25;;;6.93;;
77158;SDS011;66129;45.890;13.714;2023-10-08T14:54:58;10.80;;;6.88;;
77158;SDS011;66129;45.890;13.714;2023-10-08T14:57:24;11.85;;;6.82;;
77158;SDS011;66129;45.890;13.714;2023-10-08T14:59:51;10.70;;;6.43;;
77158;SDS011;66129;45.890;13.714;2023-10-08T15:02:17;10.27;;;6.25;;
77158;SDS011;66129;45.890;13.714;2023-10-08T15:04:43;11.35;;;7.18;;
77158;SDS011;66129;45.890;13.714;2023-10-08T15:07:09;11.07;;;6.95;;
77158;SDS011;66129;45.890;13.714;2023-10-08T15:09:36;14.68;;;7.72;;
77158;SDS011;66129;45.890;13.714;2023-10-08T15:12:06;15.40;;;8.05;;
77158;SDS011;66129;45.890;13.714;2023-10-08T15:14:33;10.02;;;6.70;;
77158;SDS011;66129;45.890;13.714;2023-10-08T15:17:00;13.98;;;7.55;;